Time;durP1;ratioP1;P1;durP2;ratioP2;P2;SDS_P1;SDS_P2;PMS_P1;PMS_P2;Temp;Humidity;BMP_temperature;BMP_pressure;BME280_temperature;BME280_humidity;BME280_pressure;Samples;Min_cycle;Max_cycle;Signal;HPM_P1;HPM_P2
2022/11/17 00:02:15;;;;;;;;;;;;;;;;;;1711929;84;20269;-69
2022/11/17 00:04:42;;;;;;;;;;;;;;;;;;1694773;83;20401;-69
2022/11/17 00:07:09;;;;;;;;;;;;;;;;;;1688934;84;20529;-69
2022/11/17 00:09:36;;;;;;;;;;;;;;;;;;1703391;84;20643;-69
2022/11/17 00:14:47;;;;;;;;;;;;;;;;;;1720819;83;20222;-69
2022/11/17 00:17:15;;;;;;;;;;;;;;;;;;1712305;81;20226;-69
2022/11/17 00:22:26;;;;;;;;;;;;;;;;;;1720698;83;20227;-69
2022/11/17 00:24:53;;;;;;;;;;;;;;;;;;1712600;84;20180;-69
2022/11/17 00:27:20;;;;;;;;;;;;;;;;;;1720725;83;20164;-69
2022/11/17 00:29:48;;;;;;;;;;;;;;;;;;1712584;84;20175;-70
2022/11/17 00:35:00;;;;;;;;;;;;;;;;;;1696527;83;20199;-69
2022/11/17 00:37:26;;;;;;;;;;;;;;;;;;1720324;83;20194;-69
2022/11/17 00:39:53;;;;;;;;;;;;;;;;;;1712498;84;20175;-69
2022/11/17 00:42:20;;;;;;;;;;;;;;;;;;1712388;84;20125;-69
2022/11/17 00:44:47;;;;;;;;;;;;;;;;;;1694507;83;20195;-69
2022/11/17 00:47:14;;;;;;;;;;;;;;;;;;1689074;84;20208;-69
2022/11/17 00:49:41;;;;;;;;;;;;;;;;;;1720743;83;20384;-69
2022/11/17 00:52:08;;;;;;;;;;;;;;;;;;1712484;84;20171;-69
2022/11/17 00:54:35;;;;;;;;;;;;;;;;;;1720849;83;20167;-69
2022/11/17 00:57:02;;;;;;;;;;;;;;;;;;1712610;84;20195;-68
2022/11/17 00:59:29;;;;;;;;;;;;;;;;;;1712457;84;20133;-69
2022/11/17 01:01:56;;;;;;;;;;;;;;;;;;1720216;83;20175;-69
2022/11/17 01:04:23;;;;;;;;;;;;;;;;;;1734915;82;20900;-69
2022/11/17 01:06:49;;;;;;;;;;;;;;;;;;1720466;83;20495;-69
2022/11/17 01:09:16;;;;;;;;;;;;;;;;;;1712109;84;20480;-69
2022/11/17 01:11:43;;;;;;;;;;;;;;;;;;1720319;83;20507;-69
2022/11/17 01:14:10;;;;;;;;;;;;;;;;;;1712643;84;20168;-69
2022/11/17 01:16:37;;;;;;;;;;;;;;;;;;1694229;83;20168;-69
2022/11/17 01:19:04;;;;;;;;;;;;;;;;;;1689182;83;20537;-69
2022/11/17 01:21:31;;;;;;;;;;;;;;;;;;1688831;84;20149;-69
2022/11/17 01:23:57;;;;;;;;;;;;;;;;;;1695769;83;20210;-69
2022/11/17 01:26:24;;;;;;;;;;;;;;;;;;1712548;84;20453;-69
2022/11/17 01:28:51;;;;;;;;;;;;;;;;;;1694482;83;20187;-69
2022/11/17 01:31:18;;;;;;;;;;;;;;;;;;1720669;83;20475;-69
2022/11/17 01:33:45;;;;;;;;;;;;;;;;;;1712717;84;20487;-69
2022/11/17 01:36:12;;;;;;;;;;;;;;;;;;1694439;83;20898;-69
2022/11/17 01:38:39;;;;;;;;;;;;;;;;;;1720586;83;20479;-69
2022/11/17 01:41:06;;;;;;;;;;;;;;;;;;1734706;82;20241;-69
2022/11/17 01:43:33;;;;;;;;;;;;;;;;;;1720322;83;20233;-69
2022/11/17 01:46:00;;;;;;;;;;;;;;;;;;1712180;84;20429;-69
2022/11/17 01:48:26;;;;;;;;;;;;;;;;;;1712515;84;20179;-69
2022/11/17 01:50:53;;;;;;;;;;;;;;;;;;1720494;83;20467;-69
2022/11/17 01:53:21;;;;;;;;;;;;;;;;;;1712834;84;20128;-69
2022/11/17 01:55:48;;;;;;;;;;;;;;;;;;1720527;83;20538;-69
2022/11/17 01:58:15;;;;;;;;;;;;;;;;;;1712732;84;20195;-69
2022/11/17 02:00:42;;;;;;;;;;;;;;;;;;1720178;83;20183;-69
2022/11/17 02:03:10;;;;;;;;;;;;;;;;;;1735028;82;20547;-71
2022/11/17 02:05:37;;;;;;;;;;;;;;;;;;1720325;83;20207;-69
2022/11/17 02:08:03;;;;;;;;;;;;;;;;;;1734923;82;20576;-69
2022/11/17 02:10:30;;;;;;;;;;;;;;;;;;1712595;84;20459;-69
2022/11/17 02:12:57;;;;;;;;;;;;;;;;;;1712374;84;20430;-70
2022/11/17 02:15:24;;;;;;;;;;;;;;;;;;1694356;83;20494;-71
2022/11/17 02:17:51;;;;;;;;;;;;;;;;;;1720701;82;20237;-70
2022/11/17 02:20:18;;;;;;;;;;;;;;;;;;1734947;82;20207;-69
2022/11/17 02:22:45;;;;;;;;;;;;;;;;;;1720694;83;20202;-68
2022/11/17 02:25:12;;;;;;;;;;;;;;;;;;1712444;84;20473;-69
2022/11/17 02:27:39;;;;;;;;;;;;;;;;;;1712247;84;20456;-69
2022/11/17 02:30:06;;;;;;;;;;;;;;;;;;1720419;83;20921;-69
2022/11/17 02:32:33;;;;;;;;;;;;;;;;;;1712399;84;20578;-69
2022/11/17 02:35:00;;;;;;;;;;;;;;;;;;1712629;84;20504;-69
2022/11/17 02:37:27;;;;;;;;;;;;;;;;;;1712447;84;20302;-69
2022/11/17 02:39:54;;;;;;;;;;;;;;;;;;1712720;84;20188;-69
2022/11/17 02:44:02;;;;;;;;;;;;;;;;;;1720541;83;20321;-69
2022/11/17 02:44:49;;;;;;;;;;;;;;;;;;1691906;85;20165;-69
2022/11/17 02:47:16;;;;;;;;;;;;;;;;;;1719015;83;20338;-69
2022/11/17 02:49:43;;;;;;;;;;;;;;;;;;1720706;83;20464;-69
2022/11/17 02:52:10;;;;;;;;;;;;;;;;;;1734371;82;20476;-69
2022/11/17 02:54:37;;;;;;;;;;;;;;;;;;1720637;83;20267;-69
2022/11/17 02:57:04;;;;;;;;;;;;;;;;;;1712098;84;20226;-69
2022/11/17 02:59:31;;;;;;;;;;;;;;;;;;1720911;83;20230;-69
2022/11/17 03:01:58;;;;;;;;;;;;;;;;;;1711945;84;20208;-69
2022/11/17 03:04:25;;;;;;;;;;;;;;;;;;1720718;83;20175;-69
2022/11/17 03:06:52;;;;;;;;;;;;;;;;;;1734593;82;20212;-69
2022/11/17 03:09:19;;;;;;;;;;;;;;;;;;1694728;83;20160;-69
2022/11/17 03:11:45;;;;;;;;;;;;;;;;;;1720568;83;20184;-69
2022/11/17 03:14:12;;;;;;;;;;;;;;;;;;1734790;82;20196;-69
2022/11/17 03:16:39;;;;;;;;;;;;;;;;;;1720795;83;20214;-69
2022/11/17 03:19:06;;;;;;;;;;;;;;;;;;1712309;82;20180;-69
2022/11/17 03:21:33;;;;;;;;;;;;;;;;;;1694348;83;20222;-69
2022/11/17 03:24:00;;;;;;;;;;;;;;;;;;1688836;84;20465;-69
2022/11/17 03:26:27;;;;;;;;;;;;;;;;;;1702903;84;20515;-69
2022/11/17 03:28:54;;;;;;;;;;;;;;;;;;1703341;84;20497;-69
2022/11/17 03:31:21;;;;;;;;;;;;;;;;;;1720653;83;20116;-69
2022/11/17 03:33:48;;;;;;;;;;;;;;;;;;1712592;84;20199;-69
2022/11/17 03:36:15;;;;;;;;;;;;;;;;;;1694392;83;20195;-69
2022/11/17 03:38:42;;;;;;;;;;;;;;;;;;1689029;84;20221;-69
2022/11/17 03:41:09;;;;;;;;;;;;;;;;;;1720819;83;20190;-69
2022/11/17 03:43:36;;;;;;;;;;;;;;;;;;1712555;84;20521;-69
2022/11/17 03:46:02;;;;;;;;;;;;;;;;;;1712575;84;20176;-69
2022/11/17 03:48:29;;;;;;;;;;;;;;;;;;1694451;83;20441;-69
2022/11/17 03:50:56;;;;;;;;;;;;;;;;;;1720598;83;20900;-69
2022/11/17 03:53:23;;;;;;;;;;;;;;;;;;1712482;84;20524;-69
2022/11/17 03:55:50;;;;;;;;;;;;;;;;;;1720658;83;20202;-69
2022/11/17 03:58:17;;;;;;;;;;;;;;;;;;1712395;84;20410;-69
2022/11/17 04:00:44;;;;;;;;;;;;;;;;;;1720229;83;20464;-69
2022/11/17 04:03:11;;;;;;;;;;;;;;;;;;1712248;84;20461;-69
2022/11/17 04:05:38;;;;;;;;;;;;;;;;;;1712572;84;20440;-69
2022/11/17 04:08:05;;;;;;;;;;;;;;;;;;1694597;83;20171;-69
2022/11/17 04:15:54;;;;;;;;;;;;;;;;;;1720843;83;20554;-69
2022/11/17 04:15:57;;;;;;;;;;;;;;;;;;1716418;83;20598;-69
2022/11/17 04:18:24;;;;;;;;;;;;;;;;;;1689173;84;20263;-68
2022/11/17 04:20:51;;;;;;;;;;;;;;;;;;1703446;83;20501;-68
2022/11/17 04:23:18;;;;;;;;;;;;;;;;;;1720733;83;20440;-68
2022/11/17 04:28:39;;;;;;;;;;;;;;;;;;1720936;83;20483;-68
2022/11/17 04:31:06;;;;;;;;;;;;;;;;;;1712387;84;20172;-69
2022/11/17 04:33:32;;;;;;;;;;;;;;;;;;1712304;84;20167;-69
2022/11/17 04:35:59;;;;;;;;;;;;;;;;;;1720584;83;20179;-68
2022/11/17 04:38:26;;;;;;;;;;;;;;;;;;1712598;84;20230;-68
2022/11/17 04:43:38;;;;;;;;;;;;;;;;;;1712487;84;20243;-69
2022/11/17 04:46:05;;;;;;;;;;;;;;;;;;1694477;83;20550;-69
2022/11/17 04:48:31;;;;;;;;;;;;;;;;;;1689334;84;20933;-69
2022/11/17 04:50:58;;;;;;;;;;;;;;;;;;1703688;84;20247;-69
2022/11/17 04:53:25;;;;;;;;;;;;;;;;;;1703382;84;20524;-69
2022/11/17 04:55:52;;;;;;;;;;;;;;;;;;1703389;84;20525;-68
2022/11/17 04:58:19;;;;;;;;;;;;;;;;;;1721078;83;20199;-66
2022/11/17 05:00:46;;;;;;;;;;;;;;;;;;1707007;83;449353;-66
2022/11/17 05:03:13;;;;;;;;;;;;;;;;;;1712634;84;20211;-66
2022/11/17 05:05:40;;;;;;;;;;;;;;;;;;1712700;84;20183;-66
2022/11/17 05:08:07;;;;;;;;;;;;;;;;;;1712526;84;20183;-67
2022/11/17 05:13:21;;;;;;;;;;;;;;;;;;1712600;84;20199;-66
2022/11/17 05:18:33;;;;;;;;;;;;;;;;;;1734811;82;20171;-67
2022/11/17 05:21:00;;;;;;;;;;;;;;;;;;1712668;81;20171;-67
2022/11/17 05:26:11;;;;;;;;;;;;;;;;;;1712579;84;20175;-67
2022/11/17 05:28:38;;;;;;;;;;;;;;;;;;1712593;84;20112;-68
2022/11/17 05:31:05;;;;;;;;;;;;;;;;;;1712544;84;20489;-67
2022/11/17 05:33:32;;;;;;;;;;;;;;;;;;1735180;82;20699;-68
2022/11/17 05:35:59;;;;;;;;;;;;;;;;;;1712621;84;20424;-70
2022/11/17 05:38:26;;;;;;;;;;;;;;;;;;1712476;84;20191;-68
2022/11/17 05:40:53;;;;;;;;;;;;;;;;;;1712398;84;20218;-70
2022/11/17 05:43:20;;;;;;;;;;;;;;;;;;1734641;82;20187;-67
2022/11/17 05:45:47;;;;;;;;;;;;;;;;;;1712416;84;20176;-67
2022/11/17 05:48:14;;;;;;;;;;;;;;;;;;1712595;84;20187;-67
2022/11/17 05:50:41;;;;;;;;;;;;;;;;;;1712406;84;20168;-66
2022/11/17 05:53:08;;;;;;;;;;;;;;;;;;1712516;84;20176;-67
2022/11/17 05:55:35;;;;;;;;;;;;;;;;;;1712260;84;20184;-67
2022/11/17 05:58:02;;;;;;;;;;;;;;;;;;1712631;84;20184;-67
2022/11/17 06:00:29;;;;;;;;;;;;;;;;;;1712256;84;20175;-67
2022/11/17 06:02:56;;;;;;;;;;;;;;;;;;1734706;82;20176;-67
2022/11/17 06:05:24;;;;;;;;;;;;;;;;;;1712627;84;20590;-67
2022/11/17 06:07:53;;;;;;;;;;;;;;;;;;1712583;84;20164;-67
2022/11/17 06:10:19;;;;;;;;;;;;;;;;;;1712762;84;20195;-67
2022/11/17 06:12:46;;;;;;;;;;;;;;;;;;1712506;84;20183;-67
2022/11/17 06:15:13;;;;;;;;;;;;;;;;;;1734610;82;20192;-67
2022/11/17 06:17:40;;;;;;;;;;;;;;;;;;1711943;84;20537;-67
2022/11/17 06:20:07;;;;;;;;;;;;;;;;;;1712491;81;20362;-67
2022/11/17 06:22:34;;;;;;;;;;;;;;;;;;1712473;84;20207;-67
2022/11/17 06:25:01;;;;;;;;;;;;;;;;;;1735005;82;20406;-67
2022/11/17 06:27:28;;;;;;;;;;;;;;;;;;1712535;84;20436;-67
2022/11/17 06:29:55;;;;;;;;;;;;;;;;;;1734826;82;20471;-67
2022/11/17 06:32:22;;;;;;;;;;;;;;;;;;1735026;82;20397;-67
2022/11/17 06:34:49;;;;;;;;;;;;;;;;;;1712327;84;20576;-67
2022/11/17 06:37:15;;;;;;;;;;;;;;;;;;1712707;84;20444;-67
2022/11/17 06:39:42;;;;;;;;;;;;;;;;;;1734646;82;20456;-67
2022/11/17 06:42:09;;;;;;;;;;;;;;;;;;1734829;82;20456;-67
2022/11/17 06:44:36;;;;;;;;;;;;;;;;;;1734826;82;20195;-66
2022/11/17 06:47:03;;;;;;;;;;;;;;;;;;1712293;84;20190;-67
2022/11/17 06:49:30;;;;;;;;;;;;;;;;;;1712313;84;20168;-67
2022/11/17 06:51:57;;;;;;;;;;;;;;;;;;1712212;84;20196;-68
2022/11/17 06:54:24;;;;;;;;;;;;;;;;;;1712742;84;20186;-67
2022/11/17 06:56:51;;;;;;;;;;;;;;;;;;1712517;84;20398;-67
2022/11/17 06:59:18;;;;;;;;;;;;;;;;;;1713004;84;20188;-67
2022/11/17 07:01:45;;;;;;;;;;;;;;;;;;1712268;84;20183;-67
2022/11/17 07:04:12;;;;;;;;;;;;;;;;;;1712600;84;20677;-67
2022/11/17 07:06:38;;;;;;;;;;;;;;;;;;1712484;84;20172;-67
2022/11/17 07:09:05;;;;;;;;;;;;;;;;;;1712515;84;20921;-67
2022/11/17 07:11:32;;;;;;;;;;;;;;;;;;1712429;84;20468;-67
2022/11/17 07:13:59;;;;;;;;;;;;;;;;;;1712622;84;20491;-67
2022/11/17 07:16:26;;;;;;;;;;;;;;;;;;1712570;84;20568;-67
2022/11/17 07:18:53;;;;;;;;;;;;;;;;;;1735072;82;20393;-68
2022/11/17 07:21:21;;;;;;;;;;;;;;;;;;1735000;81;20148;-67
2022/11/17 07:23:48;;;;;;;;;;;;;;;;;;1735009;82;20188;-67
2022/11/17 07:26:15;;;;;;;;;;;;;;;;;;1712429;84;20192;-68
2022/11/17 07:28:41;;;;;;;;;;;;;;;;;;1713246;84;20132;-67
2022/11/17 07:31:08;;;;;;;;;;;;;;;;;;1712651;84;20175;-67
2022/11/17 07:33:35;;;;;;;;;;;;;;;;;;1713023;84;20164;-67
2022/11/17 07:36:02;;;;;;;;;;;;;;;;;;1712495;84;20196;-67
2022/11/17 07:38:29;;;;;;;;;;;;;;;;;;1712844;84;20187;-67
2022/11/17 07:40:56;;;;;;;;;;;;;;;;;;1712601;84;20175;-67
2022/11/17 07:43:23;;;;;;;;;;;;;;;;;;1734984;82;20192;-67
2022/11/17 07:45:49;;;;;;;;;;;;;;;;;;1712671;84;20390;-67
2022/11/17 07:48:16;;;;;;;;;;;;;;;;;;1735030;82;20599;-67
2022/11/17 07:50:43;;;;;;;;;;;;;;;;;;1712659;84;20172;-67
2022/11/17 07:53:10;;;;;;;;;;;;;;;;;;1735072;82;20191;-67
2022/11/17 07:55:37;;;;;;;;;;;;;;;;;;1712731;84;20192;-68
2022/11/17 07:58:04;;;;;;;;;;;;;;;;;;1734792;82;20457;-67
2022/11/17 08:00:32;;;;;;;;;;;;;;;;;;1712406;84;20567;-67
2022/11/17 08:02:59;;;;;;;;;;;;;;;;;;1712933;84;20187;-67
2022/11/17 08:05:29;;;;;;;;;;;;;;;;;;1712783;84;20184;-66
2022/11/17 08:07:54;;;;;;;;;;;;;;;;;;1712497;84;20184;-67
2022/11/17 08:10:21;;;;;;;;;;;;;;;;;;1712662;84;20184;-66
2022/11/17 08:12:48;;;;;;;;;;;;;;;;;;1712747;84;20175;-66
2022/11/17 08:15:15;;;;;;;;;;;;;;;;;;1712832;84;20175;-66
2022/11/17 08:17:42;;;;;;;;;;;;;;;;;;1712722;84;20136;-67
2022/11/17 08:20:09;;;;;;;;;;;;;;;;;;1712720;84;20191;-64
2022/11/17 08:22:36;;;;;;;;;;;;;;;;;;1712638;82;20187;-63
2022/11/17 08:25:03;;;;;;;;;;;;;;;;;;1713115;84;20184;-63
2022/11/17 08:27:30;;;;;;;;;;;;;;;;;;1712635;84;20200;-64
2022/11/17 08:29:57;;;;;;;;;;;;;;;;;;1712745;84;20191;-64
2022/11/17 08:32:23;;;;;;;;;;;;;;;;;;1712689;84;20515;-64
2022/11/17 08:34:50;;;;;;;;;;;;;;;;;;1712774;84;20212;-64
2022/11/17 08:37:17;;;;;;;;;;;;;;;;;;1712616;84;20203;-64
2022/11/17 08:39:44;;;;;;;;;;;;;;;;;;1734891;82;20433;-67
2022/11/17 08:42:11;;;;;;;;;;;;;;;;;;1712726;84;20272;-64
2022/11/17 08:44:38;;;;;;;;;;;;;;;;;;1735003;82;20210;-64
2022/11/17 08:47:05;;;;;;;;;;;;;;;;;;1712732;84;20626;-64
2022/11/17 08:49:31;;;;;;;;;;;;;;;;;;1712744;84;20401;-61
2022/11/17 08:51:58;;;;;;;;;;;;;;;;;;1712607;84;20601;-63
2022/11/17 08:54:25;;;;;;;;;;;;;;;;;;1712891;84;20184;-64
2022/11/17 08:56:52;;;;;;;;;;;;;;;;;;1712426;84;20168;-62
2022/11/17 08:59:19;;;;;;;;;;;;;;;;;;1712761;84;20192;-64
2022/11/17 09:01:46;;;;;;;;;;;;;;;;;;1712189;84;20196;-66
2022/11/17 09:04:13;;;;;;;;;;;;;;;;;;1712754;84;20465;-65
2022/11/17 09:06:40;;;;;;;;;;;;;;;;;;1712466;84;20153;-64
2022/11/17 09:09:07;;;;;;;;;;;;;;;;;;1712502;84;20653;-64
2022/11/17 09:11:34;;;;;;;;;;;;;;;;;;1712551;84;20172;-64
2022/11/17 09:14:01;;;;;;;;;;;;;;;;;;1712825;84;20183;-63
2022/11/17 09:16:28;;;;;;;;;;;;;;;;;;1734778;82;20210;-64
2022/11/17 09:18:56;;;;;;;;;;;;;;;;;;1712586;84;20378;-63
2022/11/17 09:21:23;;;;;;;;;;;;;;;;;;1712482;82;20184;-63
2022/11/17 09:23:50;;;;;;;;;;;;;;;;;;1712365;84;20169;-64
2022/11/17 09:26:17;;;;;;;;;;;;;;;;;;1712468;84;20257;-63
2022/11/17 09:28:44;;;;;;;;;;;;;;;;;;1712508;84;20480;-64
2022/11/17 09:31:11;;;;;;;;;;;;;;;;;;1712451;84;20501;-65
2022/11/17 09:33:38;;;;;;;;;;;;;;;;;;1734820;82;20218;-68
2022/11/17 09:36:06;;;;;;;;;;;;;;;;;;1712323;84;20164;-64
2022/11/17 09:38:33;;;;;;;;;;;;;;;;;;1712345;84;20124;-64
2022/11/17 09:41:00;;;;;;;;;;;;;;;;;;1712155;84;20192;-64
2022/11/17 09:43:27;;;;;;;;;;;;;;;;;;1712590;84;20175;-64
2022/11/17 09:45:54;;;;;;;;;;;;;;;;;;1735074;82;20247;-64
2022/11/17 09:48:21;;;;;;;;;;;;;;;;;;1712616;84;20172;-64
2022/11/17 09:50:48;;;;;;;;;;;;;;;;;;1712526;84;20167;-64
2022/11/17 09:53:15;;;;;;;;;;;;;;;;;;1712620;84;20358;-64
2022/11/17 09:55:42;;;;;;;;;;;;;;;;;;1712464;84;20191;-64
2022/11/17 09:58:09;;;;;;;;;;;;;;;;;;1712544;84;20299;-64
2022/11/17 10:00:36;;;;;;;;;;;;;;;;;;1734354;82;20540;-64
2022/11/17 10:03:03;;;;;;;;;;;;;;;;;;1712496;84;20449;-64
2022/11/17 10:05:29;;;;;;;;;;;;;;;;;;1712545;84;20485;-63
2022/11/17 10:07:56;;;;;;;;;;;;;;;;;;1712842;84;20171;-64
2022/11/17 10:10:23;;;;;;;;;;;;;;;;;;1734881;82;20530;-64
2022/11/17 10:12:50;;;;;;;;;;;;;;;;;;1712503;84;20136;-65
2022/11/17 10:15:17;;;;;;;;;;;;;;;;;;1712533;84;20189;-65
2022/11/17 10:17:45;;;;;;;;;;;;;;;;;;1712668;84;20182;-65
2022/11/17 10:20:12;;;;;;;;;;;;;;;;;;1734664;82;20184;-65
2022/11/17 10:22:39;;;;;;;;;;;;;;;;;;1712730;81;20605;-65
2022/11/17 10:25:05;;;;;;;;;;;;;;;;;;1712733;84;20460;-65
2022/11/17 10:27:32;;;;;;;;;;;;;;;;;;1712852;84;20128;-66
2022/11/17 10:29:59;;;;;;;;;;;;;;;;;;1712705;84;20176;-65
2022/11/17 10:32:26;;;;;;;;;;;;;;;;;;1712870;84;20472;-65
2022/11/17 10:34:54;;;;;;;;;;;;;;;;;;1712972;84;20928;-65
2022/11/17 10:37:20;;;;;;;;;;;;;;;;;;1712763;84;20378;-65
2022/11/17 10:39:47;;;;;;;;;;;;;;;;;;1712680;84;20476;-65
2022/11/17 10:42:14;;;;;;;;;;;;;;;;;;1712505;84;20499;-64
2022/11/17 10:44:41;;;;;;;;;;;;;;;;;;1712637;84;20200;-65
2022/11/17 10:47:08;;;;;;;;;;;;;;;;;;1712315;84;20175;-65
2022/11/17 10:49:35;;;;;;;;;;;;;;;;;;1712307;84;20210;-64
2022/11/17 10:52:02;;;;;;;;;;;;;;;;;;1712556;84;20222;-65
2022/11/17 10:54:29;;;;;;;;;;;;;;;;;;1734825;82;20160;-64
2022/11/17 10:56:55;;;;;;;;;;;;;;;;;;1712485;84;20188;-65
2022/11/17 10:59:22;;;;;;;;;;;;;;;;;;1734965;82;20140;-65
2022/11/17 11:01:49;;;;;;;;;;;;;;;;;;1734374;82;20441;-65
2022/11/17 11:04:16;;;;;;;;;;;;;;;;;;1735073;82;20476;-65
2022/11/17 11:06:43;;;;;;;;;;;;;;;;;;1734797;82;20413;-64
2022/11/17 11:09:10;;;;;;;;;;;;;;;;;;1712656;84;20480;-65
2022/11/17 11:11:36;;;;;;;;;;;;;;;;;;1734859;82;20176;-64
2022/11/17 11:14:03;;;;;;;;;;;;;;;;;;1712675;84;20444;-65
2022/11/17 11:16:30;;;;;;;;;;;;;;;;;;1712407;84;20124;-65
2022/11/17 11:18:57;;;;;;;;;;;;;;;;;;1712569;84;20456;-66
2022/11/17 11:21:24;;;;;;;;;;;;;;;;;;1712224;84;20551;-65
2022/11/17 11:23:51;;;;;;;;;;;;;;;;;;1712335;82;20203;-65
2022/11/17 11:26:18;;;;;;;;;;;;;;;;;;1712493;84;20210;-65
2022/11/17 11:28:45;;;;;;;;;;;;;;;;;;1712644;84;20180;-64
2022/11/17 11:31:12;;;;;;;;;;;;;;;;;;1712522;84;20214;-65
2022/11/17 11:33:39;;;;;;;;;;;;;;;;;;1734848;82;20187;-65
2022/11/17 11:36:06;;;;;;;;;;;;;;;;;;1734783;82;20180;-65
2022/11/17 11:38:32;;;;;;;;;;;;;;;;;;1735002;82;20137;-65
2022/11/17 11:41:00;;;;;;;;;;;;;;;;;;1712466;84;20191;-65
2022/11/17 11:43:26;;;;;;;;;;;;;;;;;;1712581;84;20555;-65
2022/11/17 11:45:53;;;;;;;;;;;;;;;;;;1712311;84;20448;-65
2022/11/17 11:48:20;;;;;;;;;;;;;;;;;;1712494;84;20172;-65
2022/11/17 11:50:47;;;;;;;;;;;;;;;;;;1712294;84;20476;-65
2022/11/17 11:53:15;;;;;;;;;;;;;;;;;;1712552;84;20302;-65
2022/11/17 11:55:42;;;;;;;;;;;;;;;;;;1734374;82;20172;-65
2022/11/17 11:58:09;;;;;;;;;;;;;;;;;;1712402;84;20595;-65
2022/11/17 12:00:36;;;;;;;;;;;;;;;;;;1734662;82;20628;-65
2022/11/17 12:03:03;;;;;;;;;;;;;;;;;;1734761;82;20460;-65
2022/11/17 12:05:29;;;;;;;;;;;;;;;;;;1712788;84;20507;-65
2022/11/17 12:07:56;;;;;;;;;;;;;;;;;;1712519;84;20466;-64
2022/11/17 12:10:23;;;;;;;;;;;;;;;;;;1734849;82;20586;-65
2022/11/17 12:12:50;;;;;;;;;;;;;;;;;;1712408;84;20483;-65
2022/11/17 12:15:17;;;;;;;;;;;;;;;;;;1734746;82;20318;-65
2022/11/17 12:17:44;;;;;;;;;;;;;;;;;;1712549;84;20231;-65
2022/11/17 12:20:11;;;;;;;;;;;;;;;;;;1734821;82;20532;-65
2022/11/17 12:22:38;;;;;;;;;;;;;;;;;;1734884;82;20192;-65
2022/11/17 12:25:05;;;;;;;;;;;;;;;;;;1734725;82;20183;-65
2022/11/17 12:27:32;;;;;;;;;;;;;;;;;;1734614;82;20500;-65
2022/11/17 12:29:59;;;;;;;;;;;;;;;;;;1712445;84;20341;-65
2022/11/17 12:32:26;;;;;;;;;;;;;;;;;;1712316;84;20207;-65
2022/11/17 12:34:53;;;;;;;;;;;;;;;;;;1734876;82;20190;-64
2022/11/17 12:37:21;;;;;;;;;;;;;;;;;;1712266;84;20445;-64
2022/11/17 12:39:48;;;;;;;;;;;;;;;;;;1712496;84;20196;-65
2022/11/17 12:42:15;;;;;;;;;;;;;;;;;;1712341;84;20191;-65
2022/11/17 12:44:43;;;;;;;;;;;;;;;;;;1734659;82;20175;-64
2022/11/17 12:47:09;;;;;;;;;;;;;;;;;;1712303;84;20465;-64
2022/11/17 12:49:36;;;;;;;;;;;;;;;;;;1712619;84;20595;-64
2022/11/17 12:52:03;;;;;;;;;;;;;;;;;;1734906;82;20187;-64
2022/11/17 12:54:30;;;;;;;;;;;;;;;;;;1735110;82;20226;-64
2022/11/17 12:56:57;;;;;;;;;;;;;;;;;;1735172;82;20546;-64
2022/11/17 12:59:24;;;;;;;;;;;;;;;;;;1735051;82;20426;-65
2022/11/17 13:01:51;;;;;;;;;;;;;;;;;;1734337;82;20191;-65
2022/11/17 13:04:18;;;;;;;;;;;;;;;;;;1712517;84;20164;-64
2022/11/17 13:06:44;;;;;;;;;;;;;;;;;;1712605;84;20188;-65
2022/11/17 13:09:11;;;;;;;;;;;;;;;;;;1712680;84;20179;-64
2022/11/17 13:11:38;;;;;;;;;;;;;;;;;;1712582;84;20180;-64
2022/11/17 13:14:05;;;;;;;;;;;;;;;;;;1712772;84;20179;-64
2022/11/17 13:16:33;;;;;;;;;;;;;;;;;;1712489;84;20449;-64
2022/11/17 13:18:59;;;;;;;;;;;;;;;;;;1712468;84;20433;-64
2022/11/17 13:21:27;;;;;;;;;;;;;;;;;;1712398;84;20497;-64
2022/11/17 13:23:54;;;;;;;;;;;;;;;;;;1712745;81;20249;-64
2022/11/17 13:26:21;;;;;;;;;;;;;;;;;;1712344;84;20307;-65
2022/11/17 13:28:48;;;;;;;;;;;;;;;;;;1712842;84;20204;-65
2022/11/17 13:31:15;;;;;;;;;;;;;;;;;;1712404;84;20186;-64
2022/11/17 13:33:42;;;;;;;;;;;;;;;;;;1712647;84;20246;-64
2022/11/17 13:36:09;;;;;;;;;;;;;;;;;;1712489;84;20216;-64
2022/11/17 13:38:36;;;;;;;;;;;;;;;;;;1712482;84;20365;-64
2022/11/17 13:41:02;;;;;;;;;;;;;;;;;;1712624;84;20140;-64
2022/11/17 13:43:30;;;;;;;;;;;;;;;;;;1734861;82;20253;-64
2022/11/17 13:45:57;;;;;;;;;;;;;;;;;;1712607;84;20175;-64
2022/11/17 13:48:23;;;;;;;;;;;;;;;;;;1712667;84;20202;-64
2022/11/17 13:50:50;;;;;;;;;;;;;;;;;;1712873;84;20172;-65
2022/11/17 13:53:17;;;;;;;;;;;;;;;;;;1712648;84;20327;-64
2022/11/17 13:55:44;;;;;;;;;;;;;;;;;;1712554;84;20212;-64
2022/11/17 13:58:11;;;;;;;;;;;;;;;;;;1712597;84;20179;-65
2022/11/17 14:00:38;;;;;;;;;;;;;;;;;;1734522;82;20269;-67
2022/11/17 14:03:05;;;;;;;;;;;;;;;;;;1712475;84;20172;-64
2022/11/17 14:05:32;;;;;;;;;;;;;;;;;;1712340;84;20160;-64
2022/11/17 14:07:59;;;;;;;;;;;;;;;;;;1734752;82;20475;-64
2022/11/17 14:10:26;;;;;;;;;;;;;;;;;;1712122;84;20525;-65
2022/11/17 14:12:53;;;;;;;;;;;;;;;;;;1712269;84;20214;-65
2022/11/17 14:15:20;;;;;;;;;;;;;;;;;;1712665;84;20211;-64
2022/11/17 14:17:47;;;;;;;;;;;;;;;;;;1734877;82;20214;-64
2022/11/17 14:20:14;;;;;;;;;;;;;;;;;;1712747;84;20180;-64
2022/11/17 14:22:41;;;;;;;;;;;;;;;;;;1712552;84;20151;-64
2022/11/17 14:25:08;;;;;;;;;;;;;;;;;;1734762;81;20187;-64
2022/11/17 14:27:34;;;;;;;;;;;;;;;;;;1712614;84;20163;-64
2022/11/17 14:30:01;;;;;;;;;;;;;;;;;;1734982;82;20136;-64
2022/11/17 14:32:28;;;;;;;;;;;;;;;;;;1712442;84;20167;-64
2022/11/17 14:34:56;;;;;;;;;;;;;;;;;;1734925;82;20175;-64
2022/11/17 14:37:23;;;;;;;;;;;;;;;;;;1712462;84;20156;-64
2022/11/17 14:39:50;;;;;;;;;;;;;;;;;;1712539;84;20172;-64
2022/11/17 14:42:17;;;;;;;;;;;;;;;;;;1712577;84;20195;-65
2022/11/17 14:44:44;;;;;;;;;;;;;;;;;;1712331;84;20129;-65
2022/11/17 14:47:11;;;;;;;;;;;;;;;;;;1712399;84;20256;-64
2022/11/17 14:49:38;;;;;;;;;;;;;;;;;;1712990;84;20465;-64
2022/11/17 14:52:06;;;;;;;;;;;;;;;;;;1712481;84;20180;-65
2022/11/17 14:54:33;;;;;;;;;;;;;;;;;;1712701;84;20168;-65
2022/11/17 14:57:00;;;;;;;;;;;;;;;;;;1734658;82;20231;-64
2022/11/17 14:59:26;;;;;;;;;;;;;;;;;;1712572;84;20210;-65
2022/11/17 15:01:53;;;;;;;;;;;;;;;;;;1712107;84;20199;-65
2022/11/17 15:04:21;;;;;;;;;;;;;;;;;;1712765;84;20196;-65
2022/11/17 15:06:47;;;;;;;;;;;;;;;;;;1712509;84;20183;-67
2022/11/17 15:09:15;;;;;;;;;;;;;;;;;;1712540;84;20571;-63
2022/11/17 15:11:42;;;;;;;;;;;;;;;;;;1712676;84;20427;-63
2022/11/17 15:14:09;;;;;;;;;;;;;;;;;;1712494;84;20433;-63
2022/11/17 15:16:36;;;;;;;;;;;;;;;;;;1712523;84;20178;-63
2022/11/17 15:19:04;;;;;;;;;;;;;;;;;;1734485;82;20183;-63
2022/11/17 15:21:31;;;;;;;;;;;;;;;;;;1712553;84;20253;-63
2022/11/17 15:23:58;;;;;;;;;;;;;;;;;;1734888;81;20472;-63
2022/11/17 15:26:25;;;;;;;;;;;;;;;;;;1712578;84;20179;-63
2022/11/17 15:28:51;;;;;;;;;;;;;;;;;;1734700;82;20264;-63
2022/11/17 15:31:18;;;;;;;;;;;;;;;;;;1712130;84;20963;-64
2022/11/17 15:33:45;;;;;;;;;;;;;;;;;;1712600;84;20219;-63
2022/11/17 15:36:12;;;;;;;;;;;;;;;;;;1712470;84;20926;-65
2022/11/17 15:38:39;;;;;;;;;;;;;;;;;;1712735;84;20866;-65
2022/11/17 15:41:06;;;;;;;;;;;;;;;;;;1712495;84;20269;-67
2022/11/17 15:43:33;;;;;;;;;;;;;;;;;;1712650;84;20215;-67
2022/11/17 15:46:00;;;;;;;;;;;;;;;;;;1734771;82;20268;-66
2022/11/17 15:48:27;;;;;;;;;;;;;;;;;;1712623;84;20226;-74
2022/11/17 15:50:54;;;;;;;;;;;;;;;;;;1712751;84;20159;-67
2022/11/17 15:53:21;;;;;;;;;;;;;;;;;;1712662;84;20222;-67
2022/11/17 15:55:48;;;;;;;;;;;;;;;;;;1712702;84;20183;-67
2022/11/17 15:58:15;;;;;;;;;;;;;;;;;;1734890;82;20183;-67
2022/11/17 16:00:42;;;;;;;;;;;;;;;;;;1712235;84;20212;-68
2022/11/17 16:03:08;;;;;;;;;;;;;;;;;;1712539;84;20453;-66
2022/11/17 16:05:35;;;;;;;;;;;;;;;;;;1712765;84;20583;-66
2022/11/17 16:08:02;;;;;;;;;;;;;;;;;;1735320;82;20537;-66
2022/11/17 16:10:29;;;;;;;;;;;;;;;;;;1712523;84;20200;-67
2022/11/17 16:12:56;;;;;;;;;;;;;;;;;;1712850;84;20207;-68
2022/11/17 16:15:23;;;;;;;;;;;;;;;;;;1712545;84;20187;-66
2022/11/17 16:17:50;;;;;;;;;;;;;;;;;;1712614;84;20354;-66
2022/11/17 16:20:17;;;;;;;;;;;;;;;;;;1712583;84;20252;-66
2022/11/17 16:22:44;;;;;;;;;;;;;;;;;;1712874;84;20320;-66
2022/11/17 16:25:12;;;;;;;;;;;;;;;;;;1734730;81;20437;-67
2022/11/17 16:27:39;;;;;;;;;;;;;;;;;;1734928;82;20192;-66
2022/11/17 16:30:06;;;;;;;;;;;;;;;;;;1712744;84;20922;-66
2022/11/17 16:32:33;;;;;;;;;;;;;;;;;;1712829;84;20529;-66
2022/11/17 16:35:00;;;;;;;;;;;;;;;;;;1712723;84;20469;-67
2022/11/17 16:37:27;;;;;;;;;;;;;;;;;;1712602;84;20480;-67
2022/11/17 16:39:53;;;;;;;;;;;;;;;;;;1712744;84;20908;-67
2022/11/17 16:42:20;;;;;;;;;;;;;;;;;;1712532;84;20207;-69
2022/11/17 16:44:47;;;;;;;;;;;;;;;;;;1734854;82;20187;-67
2022/11/17 16:47:14;;;;;;;;;;;;;;;;;;1734833;82;20179;-68
2022/11/17 16:49:41;;;;;;;;;;;;;;;;;;1734828;82;20137;-70
2022/11/17 16:52:08;;;;;;;;;;;;;;;;;;1712467;84;20212;-65
2022/11/17 16:54:36;;;;;;;;;;;;;;;;;;1734829;82;20191;-65
2022/11/17 16:57:03;;;;;;;;;;;;;;;;;;1712731;84;20159;-65
2022/11/17 16:59:30;;;;;;;;;;;;;;;;;;1712638;83;20187;-65
2022/11/17 17:01:57;;;;;;;;;;;;;;;;;;1712249;84;20250;-65
2022/11/17 17:04:25;;;;;;;;;;;;;;;;;;1712714;84;20171;-64
2022/11/17 17:06:52;;;;;;;;;;;;;;;;;;1712658;84;20132;-64
2022/11/17 17:09:19;;;;;;;;;;;;;;;;;;1712714;84;20222;-63